Time;durP1;ratioP1;P1;durP2;ratioP2;P2;SDS_P1;SDS_P2;PMS_P1;PMS_P2;Temp;Humidity;BMP_temperature;BMP_pressure;BME280_temperature;BME280_humidity;BME280_pressure;Samples;Min_cycle;Max_cycle;Signal;HPM_P1;HPM_P2
2021/12/14 00:01:48;;;;;;;;;;;;;;;2.28;86.68;99185.85;1618269;87;22675;-83
2021/12/14 00:04:18;;;;;;;;;;;;;;;2.29;86.72;99179.80;1615471;87;26107;-84
2021/12/14 00:07:04;;;;;;;;;;;;;;;2.41;86.78;99183.34;1617609;87;20497;-83
2021/12/14 00:09:35;;;;;;;;;;;;;;;2.65;86.89;99189.64;1617863;87;20239;-83
2021/12/14 00:15:07;;;;;;;;;;;;;;;2.87;87.09;99191.63;1604531;87;20218;-84
2021/12/14 00:17:36;;;;;;;;;;;;;;;2.93;87.19;99190.17;1627925;87;26163;-84
2021/12/14 00:20:04;;;;;;;;;;;;;;;3.04;87.29;99191.17;1636865;87;24532;-83
2021/12/14 00:25:14;;;;;;;;;;;;;;;3.28;87.41;99183.15;1637882;87;25231;-84
2021/12/14 00:27:41;;;;;;;;;;;;;;;3.26;87.43;99189.69;1638496;87;20968;-84
2021/12/14 00:30:08;;;;;;;;;;;;;;;3.22;87.50;99188.49;1637653;87;26077;-84
2021/12/14 00:32:52;;;;;;;;;;;;;;;3.18;87.51;99193.36;1636780;87;21328;-83
2021/12/14 00:35:20;;;;;;;;;;;;;;;3.16;87.53;99195.16;1638730;87;20479;-83
2021/12/14 00:37:49;;;;;;;;;;;;;;;3.17;87.53;99200.27;1632230;87;25020;-84
2021/12/14 00:40:32;;;;;;;;;;;;;;;3.27;87.51;99199.59;1626410;87;22025;-84
2021/12/14 00:43:00;;;;;;;;;;;;;;;3.34;87.51;99196.77;1631208;87;26067;-84
2021/12/14 00:45:28;;;;;;;;;;;;;;;3.21;87.49;99198.02;1636409;87;24572;-84
2021/12/14 00:47:57;;;;;;;;;;;;;;;3.06;87.39;99200.16;1634924;86;20229;-84
2021/12/14 00:50:25;;;;;;;;;;;;;;;2.97;87.36;99195.24;1635524;87;25052;-84
2021/12/14 00:52:53;;;;;;;;;;;;;;;2.84;87.32;99199.88;1638186;86;23022;-83
2021/12/14 00:55:22;;;;;;;;;;;;;;;2.75;87.26;99202.28;1631516;87;26751;-83
2021/12/14 00:57:49;;;;;;;;;;;;;;;2.67;87.19;99200.36;1637173;87;24594;-83
2021/12/14 01:00:16;;;;;;;;;;;;;;;2.60;87.16;99200.54;1636198;87;20638;-84
2021/12/14 01:02:43;;;;;;;;;;;;;;;2.52;87.10;99195.11;1634579;87;24931;-83
2021/12/14 01:05:11;;;;;;;;;;;;;;;2.54;87.09;99189.92;1615664;87;21997;-83
2021/12/14 01:07:37;;;;;;;;;;;;;;;2.59;87.10;99197.55;1618098;88;26687;-83
2021/12/14 01:10:05;;;;;;;;;;;;;;;2.58;87.13;99192.82;1619868;87;24685;-83
2021/12/14 01:12:49;;;;;;;;;;;;;;;2.57;87.14;99188.97;1605299;88;20222;-83
2021/12/14 01:15:49;;;;;;;;;;;;;;;2.56;87.16;99192.47;1619246;86;25085;-83
2021/12/14 01:20:52;;;;;;;;;;;;;;;2.49;87.18;99193.06;1611356;87;26012;-83
2021/12/14 01:23:25;;;;;;;;;;;;;;;2.56;87.23;99198.48;1622959;87;24553;-83
2021/12/14 01:25:49;;;;;;;;;;;;;;;2.62;87.28;99195.72;1634209;87;20257;-83
2021/12/14 01:28:19;;;;;;;;;;;;;;;2.70;87.36;99193.80;1606600;87;25800;-83
2021/12/14 01:31:33;;;;;;;;;;;;;;;2.75;87.45;99195.82;1614213;87;22139;-83
2021/12/14 01:33:19;;;;;;;;;;;;;;;2.80;87.51;99190.08;1617990;87;26199;-83
2021/12/14 01:35:48;;;;;;;;;;;;;;;2.78;87.55;99189.73;1618680;87;24444;-83
2021/12/14 01:39:08;;;;;;;;;;;;;;;2.77;87.60;99188.88;1619325;87;20172;-84
2021/12/14 01:40:54;;;;;;;;;;;;;;;2.73;87.59;99187.25;1626009;87;25090;-85
2021/12/14 01:43:23;;;;;;;;;;;;;;;2.66;87.59;99182.30;1630322;86;21988;-84
2021/12/14 01:45:51;;;;;;;;;;;;;;;2.67;87.57;99185.30;1622277;87;26106;-84
2021/12/14 01:48:18;;;;;;;;;;;;;;;2.63;87.56;99189.67;1621040;86;24520;-84
2021/12/14 01:50:45;;;;;;;;;;;;;;;2.63;87.56;99188.82;1620292;87;20221;-84
2021/12/14 01:53:20;;;;;;;;;;;;;;;2.62;87.56;99185.86;1613371;88;25768;-85
2021/12/14 01:55:50;;;;;;;;;;;;;;;2.82;87.60;99192.63;1616641;87;21970;-84
2021/12/14 01:58:13;;;;;;;;;;;;;;;2.88;87.64;99187.30;1616176;86;26638;-85
2021/12/14 02:00:42;;;;;;;;;;;;;;;3.04;87.70;99191.17;1623758;87;24647;-85
2021/12/14 02:03:10;;;;;;;;;;;;;;;3.11;87.74;99192.67;1623264;86;20368;-84
2021/12/14 02:05:37;;;;;;;;;;;;;;;3.18;87.78;99192.06;1617783;88;24606;-85
2021/12/14 02:08:07;;;;;;;;;;;;;;;3.24;87.80;99184.14;1620403;87;20299;-84
2021/12/14 02:10:35;;;;;;;;;;;;;;;3.29;87.79;99187.44;1631274;86;25948;-83
2021/12/14 02:13:24;;;;;;;;;;;;;;;3.31;87.79;99190.39;1625887;87;20508;-83
2021/12/14 02:16:10;;;;;;;;;;;;;;;3.35;87.80;99186.83;1636039;87;20188;-84
2021/12/14 02:18:40;;;;;;;;;;;;;;;3.33;87.78;99190.33;1626297;87;25052;-83
2021/12/14 02:21:12;;;;;;;;;;;;;;;3.33;87.76;99192.47;1627123;86;22028;-83
2021/12/14 02:23:37;;;;;;;;;;;;;;;3.31;87.75;99190.39;1636815;87;26104;-83
2021/12/14 02:26:07;;;;;;;;;;;;;;;3.31;87.73;99192.13;1644990;86;21034;-83
2021/12/14 02:28:34;;;;;;;;;;;;;;;3.27;87.73;99197.00;1625644;88;20213;-84
2021/12/14 02:31:03;;;;;;;;;;;;;;;3.28;87.75;99190.91;1619620;87;25001;-84
2021/12/14 02:33:32;;;;;;;;;;;;;;;3.32;87.75;99189.95;1629147;87;22055;-84
2021/12/14 02:36:03;;;;;;;;;;;;;;;3.38;87.73;99192.81;1625756;87;26147;-84
2021/12/14 02:38:27;;;;;;;;;;;;;;;3.33;87.72;99187.30;1626612;87;24449;-83
2021/12/14 02:40:57;;;;;;;;;;;;;;;3.26;87.74;99185.80;1629429;87;20227;-83
2021/12/14 02:43:25;;;;;;;;;;;;;;;3.21;87.74;99182.95;1623267;87;24977;-84
2021/12/14 02:45:55;;;;;;;;;;;;;;;3.13;87.75;99181.85;1623438;87;22770;-84
2021/12/14 02:48:28;;;;;;;;;;;;;;;3.23;87.76;99185.87;1603751;87;25850;-85
2021/12/14 02:50:54;;;;;;;;;;;;;;;3.31;87.79;99185.67;1618127;87;24662;-84
2021/12/14 02:53:23;;;;;;;;;;;;;;;3.36;87.78;99177.33;1617219;87;20560;-84
2021/12/14 02:55:49;;;;;;;;;;;;;;;3.42;87.83;99178.89;1649150;86;24900;-84
2021/12/14 02:58:17;;;;;;;;;;;;;;;3.39;87.77;99186.28;1626316;88;22565;-84
2021/12/14 03:00:46;;;;;;;;;;;;;;;3.28;87.80;99183.15;1640471;85;25781;-84
2021/12/14 03:03:12;;;;;;;;;;;;;;;3.29;87.80;99184.85;1622891;86;24769;-85
2021/12/14 03:08:32;;;;;;;;;;;;;;;3.16;87.78;99193.87;1665229;85;25949;-84
2021/12/14 03:11:10;;;;;;;;;;;;;;;;;;;;;
2021/12/14 03:13:28;;;;;;;;;;;;;;;2.74;87.61;99197.99;1620569;87;26059;-85
2021/12/14 03:15:56;;;;;;;;;;;;;;;2.63;87.55;99196.13;1616806;86;24931;-85
2021/12/14 03:18:24;;;;;;;;;;;;;;;2.61;87.48;99200.51;1662162;85;20236;-84
2021/12/14 03:20:54;;;;;;;;;;;;;;;2.70;87.50;99202.00;1644141;85;24973;-84
2021/12/14 03:23:26;;;;;;;;;;;;;;;2.85;87.53;99202.44;1634906;86;22025;-84
2021/12/14 03:25:54;;;;;;;;;;;;;;;2.92;87.59;99205.27;1651476;86;25915;-84
2021/12/14 03:28:21;;;;;;;;;;;;;;;2.91;87.63;99204.02;1646818;87;24536;-84
2021/12/14 03:31:01;;;;;;;;;;;;;;;2.92;87.69;99199.25;1632834;85;20292;-84
2021/12/14 03:33:30;;;;;;;;;;;;;;;3.03;87.73;99202.84;1636403;86;25685;-85
2021/12/14 03:35:58;;;;;;;;;;;;;;;3.19;87.83;99207.98;1625736;86;22446;-84
2021/12/14 03:38:26;;;;;;;;;;;;;;;3.15;87.86;99205.09;1646098;85;26045;-84
2021/12/14 03:40:59;;;;;;;;;;;;;;;3.01;87.85;99202.88;1660540;85;24691;-84
2021/12/14 03:43:29;;;;;;;;;;;;;;;2.90;87.81;99197.14;1660177;85;20240;-83
2021/12/14 03:45:56;;;;;;;;;;;;;;;2.97;87.82;99196.09;1660906;85;24971;-83
2021/12/14 03:48:30;;;;;;;;;;;;;;;3.10;87.79;99195.33;1659030;85;22180;-83
2021/12/14 03:50:56;;;;;;;;;;;;;;;3.17;87.80;99195.53;1635487;86;25489;-83
2021/12/14 03:53:23;;;;;;;;;;;;;;;3.13;87.76;99194.78;1669378;84;24326;-83
2021/12/14 03:56:00;;;;;;;;;;;;;;;3.08;87.72;99193.22;1698326;83;20243;-84
2021/12/14 03:58:30;;;;;;;;;;;;;;;3.04;87.71;99197.63;1703744;83;25076;-84
2021/12/14 04:00:58;;;;;;;;;;;;;;;3.00;87.68;99197.77;1690919;83;22101;-84
2021/12/14 04:03:25;;;;;;;;;;;;;;;2.97;87.63;99195.24;1689813;83;26000;-85
2021/12/14 04:05:52;;;;;;;;;;;;;;;2.93;87.61;99196.63;1663905;85;25137;-84
2021/12/14 04:08:19;;;;;;;;;;;;;;;2.92;87.61;99197.52;1646088;85;20252;-85
2021/12/14 04:10:47;;;;;;;;;;;;;;;2.97;87.63;99196.53;1624165;86;25706;-84
2021/12/14 04:13:15;;;;;;;;;;;;;;;3.01;87.63;99189.09;1619071;86;21817;-84
2021/12/14 04:15:41;;;;;;;;;;;;;;;3.08;87.68;99193.22;1665873;85;25984;-85
2021/12/14 04:18:12;;;;;;;;;;;;;;;3.02;87.68;99186.47;1650721;85;20891;-85
2021/12/14 04:20:41;;;;;;;;;;;;;;;2.85;87.67;99188.22;1645770;85;20222;-83
2021/12/14 04:23:11;;;;;;;;;;;;;;;2.67;87.65;99180.97;1703066;83;25306;-83
2021/12/14 04:25:38;;;;;;;;;;;;;;;2.55;87.61;99189.03;1668224;85;22056;-84
2021/12/14 04:28:06;;;;;;;;;;;;;;;2.45;87.55;99190.16;1669865;85;26805;-83
2021/12/14 04:30:33;;;;;;;;;;;;;;;2.40;87.51;99186.84;1636876;85;24632;-83
2021/12/14 04:33:01;;;;;;;;;;;;;;;2.34;87.52;99186.99;1656414;84;20241;-83
2021/12/14 04:35:32;;;;;;;;;;;;;;;2.20;87.53;99191.19;1633423;86;25758;-83
2021/12/14 04:38:04;;;;;;;;;;;;;;;2.07;87.51;99193.20;1627790;86;21991;-83
2021/12/14 04:51:58;;;;;;;;;;;;;;;2.50;87.85;99194.77;1663495;85;22229;-84
2021/12/14 04:54:01;;;;;;;;;;;;;;;2.57;87.96;99188.53;1662287;83;26718;-84
2021/12/14 04:56:33;;;;;;;;;;;;;;;2.63;88.06;99188.38;1660981;85;24430;-84
2021/12/14 04:59:01;;;;;;;;;;;;;;;2.63;88.16;99193.55;1665262;85;20256;-83
2021/12/14 05:01:27;;;;;;;;;;;;;;;2.68;88.25;99198.15;1650318;85;25032;-83
2021/12/14 05:03:58;;;;;;;;;;;;;;;2.70;88.33;99200.27;1700271;83;22052;-83
2021/12/14 05:06:32;;;;;;;;;;;;;;;2.74;88.44;99198.44;1694789;83;27024;-84
2021/12/14 05:11:24;;;;;;;;;;;;;;;2.75;88.58;99204.02;1705360;83;20307;-83
2021/12/14 05:13:58;;;;;;;;;;;;;;;2.82;88.65;99196.52;1702285;83;25044;-83
2021/12/14 05:16:25;;;;;;;;;;;;;;;2.89;88.68;99195.47;1663691;85;21989;-83
2021/12/14 05:18:53;;;;;;;;;;;;;;;2.93;88.73;99199.22;1668073;85;25879;-83
2021/12/14 05:21:24;;;;;;;;;;;;;;;2.98;88.75;99196.50;1700728;83;25314;-83
2021/12/14 05:23:51;;;;;;;;;;;;;;;3.07;88.84;99201.41;1702709;83;20219;-84
2021/12/14 05:26:18;;;;;;;;;;;;;;;3.09;88.84;99198.35;1671860;83;24983;-84
2021/12/14 05:28:51;;;;;;;;;;;;;;;3.09;88.85;99202.23;1651103;85;22708;-84
2021/12/14 05:31:17;;;;;;;;;;;;;;;3.12;88.84;99196.11;1666318;84;26249;-85
2021/12/14 05:33:43;;;;;;;;;;;;;;;3.12;88.86;99189.64;1666194;85;24545;-84
2021/12/14 05:36:12;;;;;;;;;;;;;;;3.14;88.88;99193.05;1645324;84;20208;-84
2021/12/14 05:43:56;;;;;;;;;;;;;;;3.10;88.85;99186.28;1661100;85;25993;-83
2021/12/14 05:46:22;;;;;;;;;;;;;;;2.99;88.87;99185.72;1662886;84;25059;-83
2021/12/14 05:48:48;;;;;;;;;;;;;;;2.89;88.87;99194.18;1657034;84;20752;-83
2021/12/14 05:51:15;;;;;;;;;;;;;;;2.76;88.85;99198.81;1700117;83;25019;-83
2021/12/14 05:53:43;;;;;;;;;;;;;;;2.70;88.84;99197.67;1696738;83;22807;-83
2021/12/14 05:56:11;;;;;;;;;;;;;;;2.71;88.85;99193.36;1699292;83;26946;-83
2021/12/14 05:58:37;;;;;;;;;;;;;;;2.78;88.88;99190.55;1690160;83;24529;-85
2021/12/14 06:01:05;;;;;;;;;;;;;;;2.85;88.93;99182.20;1703993;82;20478;-84
2021/12/14 06:03:32;;;;;;;;;;;;;;;2.80;88.95;99184.06;1710624;82;25037;-84
2021/12/14 06:06:00;;;;;;;;;;;;;;;2.84;88.97;99180.05;1700095;83;22105;-84
2021/12/14 06:08:27;;;;;;;;;;;;;;;2.94;89.04;99177.66;1696468;83;25984;-83
2021/12/14 06:10:55;;;;;;;;;;;;;;;3.02;89.07;99177.42;1653813;85;24494;-84
2021/12/14 06:13:23;;;;;;;;;;;;;;;3.09;89.12;99172.94;1648733;86;20233;-83
2021/12/14 06:15:49;;;;;;;;;;;;;;;3.11;89.17;99168.11;1656187;84;25696;-84
2021/12/14 06:18:17;;;;;;;;;;;;;;;3.14;89.19;99176.23;1655348;85;22019;-83
2021/12/14 06:20:44;;;;;;;;;;;;;;;3.21;89.24;99166.13;1645265;85;26961;-83
2021/12/14 06:23:10;;;;;;;;;;;;;;;3.24;89.22;99168.17;1701146;82;24354;-83
2021/12/14 06:25:36;;;;;;;;;;;;;;;3.25;89.22;99163.41;1690282;83;20394;-83
2021/12/14 06:28:02;;;;;;;;;;;;;;;3.24;89.20;99163.45;1688845;83;20294;-83
2021/12/14 06:30:33;;;;;;;;;;;;;;;3.22;89.20;99155.72;1660135;83;22011;-84
2021/12/14 06:33:01;;;;;;;;;;;;;;;3.24;89.17;99152.66;1702201;82;26078;-85
2021/12/14 06:35:30;;;;;;;;;;;;;;;3.23;89.13;99149.66;1695626;83;24739;-85
2021/12/14 06:40:52;;;;;;;;;;;;;;;3.14;89.09;99147.80;1695767;83;25076;-85
2021/12/14 06:43:19;;;;;;;;;;;;;;;3.12;89.08;99156.03;1698852;83;22016;-84
2021/12/14 06:45:55;;;;;;;;;;;;;;;3.18;89.07;99161.03;1702618;83;26053;-84
2021/12/14 06:48:20;;;;;;;;;;;;;;;3.15;89.04;99159.40;1704302;83;24484;-84
2021/12/14 06:50:48;;;;;;;;;;;;;;;3.16;89.02;99166.71;1706863;83;21111;-84
2021/12/14 06:53:15;;;;;;;;;;;;;;;3.12;89.02;99171.55;1698058;83;25140;-84
2021/12/14 06:55:44;;;;;;;;;;;;;;;3.11;89.00;99164.70;1696165;83;22026;-84
2021/12/14 06:58:18;;;;;;;;;;;;;;;3.11;89.00;99157.77;1670301;85;26817;-84
2021/12/14 07:00:46;;;;;;;;;;;;;;;3.15;88.97;99158.10;1657242;85;24461;-83
2021/12/14 07:03:12;;;;;;;;;;;;;;;3.20;88.98;99143.30;1698476;83;20494;-84
2021/12/14 07:05:42;;;;;;;;;;;;;;;3.15;88.97;99153.38;1699276;82;25249;-84
2021/12/14 07:08:10;;;;;;;;;;;;;;;3.11;88.96;99147.89;1699669;83;22104;-84
2021/12/14 07:10:39;;;;;;;;;;;;;;;3.09;88.98;99146.64;1703835;82;26825;-84
2021/12/14 07:13:12;;;;;;;;;;;;;;;3.08;89.01;99150.11;1665460;85;24547;-85
2021/12/14 07:15:38;;;;;;;;;;;;;;;2.98;89.01;99155.14;1632984;86;20589;-85
2021/12/14 07:18:05;;;;;;;;;;;;;;;2.97;89.06;99159.05;1665733;85;24960;-84
2021/12/14 07:20:33;;;;;;;;;;;;;;;3.05;89.09;99160.55;1654119;85;22036;-84
2021/12/14 07:23:16;;;;;;;;;;;;;;;3.17;89.16;99161.91;1657614;85;26078;-84
2021/12/14 07:25:44;;;;;;;;;;;;;;;3.29;89.18;99156.40;1704795;83;24551;-84
2021/12/14 07:28:11;;;;;;;;;;;;;;;3.41;89.24;99157.34;1702703;83;20214;-84
2021/12/14 07:30:42;;;;;;;;;;;;;;;3.32;89.27;99163.64;1692708;82;25078;-84
2021/12/14 07:33:13;;;;;;;;;;;;;;;3.22;89.31;99160.89;1682520;83;22071;-83
2021/12/14 07:35:46;;;;;;;;;;;;;;;3.19;89.33;99156.27;1703997;83;26201;-84
2021/12/14 07:38:18;;;;;;;;;;;;;;;3.16;89.35;99155.92;1666558;85;24361;-84
2021/12/14 07:40:46;;;;;;;;;;;;;;;3.11;89.36;99160.34;1629476;85;20292;-84
2021/12/14 07:43:18;;;;;;;;;;;;;;;3.03;89.36;99168.78;1640515;86;25015;-84
2021/12/14 07:45:46;;;;;;;;;;;;;;;3.09;89.34;99167.77;1658076;85;22008;-84
2021/12/14 07:48:14;;;;;;;;;;;;;;;3.24;89.39;99176.38;1665245;85;26104;-84
2021/12/14 07:50:45;;;;;;;;;;;;;;;3.38;89.41;99178.14;1637546;85;24582;-83
2021/12/14 07:53:11;;;;;;;;;;;;;;;3.47;89.45;99169.25;1679119;85;20306;-83
2021/12/14 07:55:39;;;;;;;;;;;;;;;3.49;89.48;99170.88;1663413;85;25607;-83
2021/12/14 07:58:05;;;;;;;;;;;;;;;3.58;89.53;99177.10;1648735;85;23025;-83
2021/12/14 08:00:35;;;;;;;;;;;;;;;3.63;89.58;99168.75;1619036;87;26097;-84
2021/12/14 08:03:01;;;;;;;;;;;;;;;3.62;89.62;99167.49;1648013;86;24458;-83
2021/12/14 08:05:29;;;;;;;;;;;;;;;3.59;89.67;99167.16;1650423;86;20251;-84
2021/12/14 08:08:00;;;;;;;;;;;;;;;3.61;89.69;99170.52;1651109;85;25005;-84
2021/12/14 08:10:28;;;;;;;;;;;;;;;3.63;89.72;99162.72;1649628;85;22878;-83
2021/12/14 08:12:57;;;;;;;;;;;;;;;3.68;89.74;99164.72;1677372;84;26021;-84
2021/12/14 08:15:25;;;;;;;;;;;;;;;3.76;89.75;99177.00;1667220;85;24133;-84
2021/12/14 08:17:53;;;;;;;;;;;;;;;3.77;89.75;99170.45;1669044;85;20546;-83
2021/12/14 08:20:21;;;;;;;;;;;;;;;3.73;89.71;99174.05;1668217;85;25033;-84
2021/12/14 08:22:51;;;;;;;;;;;;;;;3.68;89.69;99169.90;1658864;85;22009;-84
2021/12/14 08:25:19;;;;;;;;;;;;;;;3.66;89.65;99168.64;1665036;85;26885;-83
2021/12/14 08:27:49;;;;;;;;;;;;;;;3.63;89.62;99158.84;1655353;85;24342;-84
2021/12/14 08:30:16;;;;;;;;;;;;;;;3.72;89.61;99170.20;1636623;86;20177;-83
2021/12/14 08:32:42;;;;;;;;;;;;;;;3.69;89.60;99166.42;1677210;84;25039;-83
2021/12/14 08:35:10;;;;;;;;;;;;;;;3.63;89.59;99170.05;1615142;86;22202;-84
2021/12/14 08:37:38;;;;;;;;;;;;;;;3.63;89.61;99168.75;1649817;86;26086;-84
2021/12/14 08:40:12;;;;;;;;;;;;;;;3.63;89.64;99173.08;1670736;85;25164;-84
2021/12/14 08:42:47;;;;;;;;;;;;;;;3.67;89.69;99180.70;1644537;85;20233;-83
2021/12/14 08:45:27;;;;;;;;;;;;;;;3.69;89.70;99185.39;1660939;85;25059;-83
2021/12/14 08:48:04;;;;;;;;;;;;;;;3.70;89.76;99184.95;1674178;84;22706;-83
2021/12/14 08:50:31;;;;;;;;;;;;;;;3.72;89.79;99182.70;1665411;84;26001;-83
2021/12/14 08:53:01;;;;;;;;;;;;;;;3.78;89.84;99180.38;1653188;85;24481;-83
2021/12/14 08:55:31;;;;;;;;;;;;;;;3.87;89.87;99185.73;1652708;84;20223;-83
2021/12/14 08:57:56;;;;;;;;;;;;;;;3.89;89.91;99180.03;1665315;85;25754;-83
2021/12/14 09:00:23;;;;;;;;;;;;;;;3.93;89.95;99184.25;1695425;82;20251;-84
2021/12/14 09:02:52;;;;;;;;;;;;;;;3.95;89.99;99186.33;1694097;83;26026;-83
2021/12/14 09:05:20;;;;;;;;;;;;;;;3.97;90.02;99175.48;1697437;83;25325;-83
2021/12/14 09:07:47;;;;;;;;;;;;;;;3.95;90.04;99169.05;1703265;83;20488;-83
2021/12/14 09:10:21;;;;;;;;;;;;;;;3.98;90.07;99173.30;1703464;83;25149;-83
2021/12/14 09:12:49;;;;;;;;;;;;;;;3.97;90.10;99176.78;1700930;83;22081;-83
2021/12/14 09:15:20;;;;;;;;;;;;;;;3.93;90.10;99177.30;1698254;83;26284;-84
2021/12/14 09:17:45;;;;;;;;;;;;;;;3.94;90.12;99172.97;1701245;82;25954;-84
2021/12/14 09:20:19;;;;;;;;;;;;;;;3.91;90.12;99166.61;1698614;83;20217;-84
2021/12/14 09:22:46;;;;;;;;;;;;;;;3.87;90.10;99165.02;1704708;83;24985;-84
2021/12/14 09:25:18;;;;;;;;;;;;;;;3.89;90.12;99158.88;1706499;83;20213;-84
2021/12/14 09:27:45;;;;;;;;;;;;;;;3.93;90.14;99154.00;1710140;82;26776;-84
2021/12/14 09:30:13;;;;;;;;;;;;;;;3.91;90.16;99149.78;1703804;82;24549;-84
2021/12/14 09:32:40;;;;;;;;;;;;;;;3.92;90.20;99144.56;1690355;83;20233;-84
2021/12/14 09:35:08;;;;;;;;;;;;;;;3.99;90.27;99146.03;1704417;83;25055;-84
2021/12/14 09:37:37;;;;;;;;;;;;;;;4.10;90.36;99150.88;1700995;83;22105;-84
2021/12/14 09:40:12;;;;;;;;;;;;;;;4.15;90.39;99144.64;1702132;83;26070;-84
2021/12/14 09:42:41;;;;;;;;;;;;;;;4.23;90.44;99143.11;1692516;83;24424;-84
2021/12/14 09:45:09;;;;;;;;;;;;;;;4.19;90.48;99138.94;1673984;85;20487;-84
2021/12/14 09:47:36;;;;;;;;;;;;;;;4.27;90.52;99138.22;1635074;86;24979;-83
2021/12/14 09:50:09;;;;;;;;;;;;;;;4.30;90.56;99134.69;1669747;84;22095;-84
2021/12/14 09:52:37;;;;;;;;;;;;;;;4.34;90.57;99136.28;1655595;84;26828;-84
2021/12/14 09:55:05;;;;;;;;;;;;;;;4.34;90.59;99142.31;1668682;84;25086;-83
2021/12/14 09:57:34;;;;;;;;;;;;;;;4.29;90.63;99135.14;1662390;84;20240;-83
2021/12/14 10:00:02;;;;;;;;;;;;;;;4.32;90.65;99147.98;1661897;85;24974;-84
2021/12/14 10:02:33;;;;;;;;;;;;;;;4.38;90.70;99159.44;1652167;85;21994;-84
2021/12/14 10:05:05;;;;;;;;;;;;;;;4.38;90.73;99155.55;1648879;85;26050;-83
2021/12/14 10:07:31;;;;;;;;;;;;;;;4.40;90.76;99156.80;1658939;84;24511;-84
2021/12/14 10:09:59;;;;;;;;;;;;;;;4.38;90.78;99150.37;1671195;84;20403;-83
2021/12/14 10:12:49;;;;;;;;;;;;;;;4.45;90.82;99152.31;1645398;85;25026;-84
2021/12/14 10:14:59;;;;;;;;;;;;;;;4.57;90.85;99151.91;1610925;86;20212;-84
2021/12/14 10:17:27;;;;;;;;;;;;;;;4.64;90.86;99149.47;1635136;86;21336;-84
2021/12/14 10:19:54;;;;;;;;;;;;;;;4.78;90.93;99145.13;1701173;83;24550;-83
2021/12/14 10:22:23;;;;;;;;;;;;;;;4.89;90.93;99146.89;1691423;83;20591;-84
2021/12/14 10:24:53;;;;;;;;;;;;;;;4.91;90.95;99140.73;1714971;82;25883;-84
2021/12/14 10:27:20;;;;;;;;;;;;;;;4.96;90.97;99136.22;1690467;83;21609;-84
2021/12/14 10:29:46;;;;;;;;;;;;;;;4.97;90.97;99133.18;1696431;83;26238;-84
2021/12/14 10:32:14;;;;;;;;;;;;;;;4.94;90.95;99134.59;1707381;83;20440;-84
2021/12/14 10:34:42;;;;;;;;;;;;;;;4.91;90.89;99130.83;1699403;83;20292;-84
2021/12/14 10:37:16;;;;;;;;;;;;;;;4.78;90.83;99134.30;1690391;83;25594;-84
2021/12/14 10:45:09;;;;;;;;;;;;;;;4.61;90.56;99137.48;1670027;84;24472;-84
2021/12/14 10:47:38;;;;;;;;;;;;;;;4.55;90.50;99133.80;1656933;85;20564;-84
2021/12/14 10:50:06;;;;;;;;;;;;;;;4.48;90.44;99131.45;1659624;84;24479;-84
2021/12/14 10:52:33;;;;;;;;;;;;;;;4.43;90.38;99127.73;1648851;85;22834;-84
2021/12/14 10:55:01;;;;;;;;;;;;;;;4.38;90.31;99117.98;1655651;85;26152;-84
2021/12/14 10:57:31;;;;;;;;;;;;;;;4.35;90.29;99116.80;1647365;84;24466;-84
2021/12/14 10:59:58;;;;;;;;;;;;;;;4.41;90.30;99114.00;1664596;84;20188;-84
2021/12/14 11:02:26;;;;;;;;;;;;;;;4.41;90.29;99110.56;1670603;84;24974;-84
2021/12/14 11:04:56;;;;;;;;;;;;;;;4.44;90.33;99110.45;1673671;83;22181;-84
2021/12/14 11:07:26;;;;;;;;;;;;;;;4.50;90.39;99102.02;1619771;87;26222;-84
2021/12/14 11:10:07;;;;;;;;;;;;;;;4.57;90.42;99103.50;1663233;84;24896;-84
2021/12/14 11:12:35;;;;;;;;;;;;;;;4.53;90.46;99100.59;1640433;85;20546;-84
2021/12/14 11:15:12;;;;;;;;;;;;;;;4.52;90.44;99095.49;1685977;83;25682;-84
2021/12/14 11:20:24;;;;;;;;;;;;;;;4.62;90.54;99096.86;1708555;83;26007;-84
2021/12/14 11:22:52;;;;;;;;;;;;;;;4.69;90.59;99102.20;1708214;83;24289;-84
2021/12/14 11:25:20;;;;;;;;;;;;;;;4.69;90.62;99097.02;1698165;83;20267;-85
2021/12/14 11:27:48;;;;;;;;;;;;;;;4.72;90.66;99093.48;1703551;83;24454;-84
2021/12/14 11:30:22;;;;;;;;;;;;;;;4.77;90.66;99095.01;1701600;83;21986;-85
2021/12/14 11:32:50;;;;;;;;;;;;;;;4.84;90.68;99095.64;1668972;85;26000;-84
2021/12/14 11:35:17;;;;;;;;;;;;;;;4.89;90.75;99092.43;1634612;86;24591;-84
2021/12/14 11:37:48;;;;;;;;;;;;;;;4.89;90.78;99089.83;1674249;85;20232;-84
2021/12/14 11:40:15;;;;;;;;;;;;;;;4.91;90.79;99088.05;1673688;85;24934;-85
2021/12/14 11:42:41;;;;;;;;;;;;;;;4.90;90.77;99088.48;1630122;86;22018;-85
2021/12/14 11:45:12;;;;;;;;;;;;;;;4.90;90.77;99089.79;1629742;86;26083;-85
2021/12/14 11:47:46;;;;;;;;;;;;;;;4.90;90.78;99083.75;1658299;85;25256;-86
2021/12/14 11:50:13;;;;;;;;;;;;;;;4.93;90.80;99088.81;1662179;83;20223;-85
2021/12/14 11:52:50;;;;;;;;;;;;;;;4.93;90.78;99087.52;1655816;85;24995;-85
2021/12/14 11:55:28;;;;;;;;;;;;;;;4.93;90.77;99085.77;1663784;86;21970;-85
2021/12/14 11:58:04;;;;;;;;;;;;;;;4.94;90.74;99085.32;1663091;85;26137;-85
2021/12/14 12:00:31;;;;;;;;;;;;;;;4.94;90.74;99081.44;1660647;85;25532;-85
2021/12/14 12:02:58;;;;;;;;;;;;;;;4.93;90.72;99078.44;1659250;85;20280;-85
2021/12/14 12:05:30;;;;;;;;;;;;;;;5.02;90.73;99080.68;1663197;85;25885;-84
2021/12/14 12:10:43;;;;;;;;;;;;;;;5.15;90.80;99081.92;1637355;85;26107;-85
2021/12/14 12:13:12;;;;;;;;;;;;;;;5.20;90.85;99078.70;1649712;85;24579;-85
2021/12/14 12:15:45;;;;;;;;;;;;;;;5.24;90.85;99073.78;1684709;83;20230;-85
2021/12/14 12:18:11;;;;;;;;;;;;;;;5.27;90.86;99078.87;1694121;83;25146;-86
2021/12/14 12:20:40;;;;;;;;;;;;;;;5.35;90.88;99078.11;1691015;83;22116;-86
2021/12/14 12:23:12;;;;;;;;;;;;;;;5.38;90.90;99070.68;1690746;83;25960;-86
2021/12/14 12:25:40;;;;;;;;;;;;;;;5.40;90.92;99066.28;1694992;83;24535;-87
2021/12/14 12:28:08;;;;;;;;;;;;;;;5.37;90.90;99069.83;1689642;83;20148;-86
2021/12/14 12:30:48;;;;;;;;;;;;;;;5.29;90.91;99067.16;1693116;83;25216;-86
2021/12/14 12:33:31;;;;;;;;;;;;;;;5.29;90.89;99069.27;1701791;83;22017;-86
2021/12/14 12:35:59;;;;;;;;;;;;;;;5.38;90.89;99072.83;1702485;83;25947;-86
2021/12/14 12:38:42;;;;;;;;;;;;;;;5.38;90.88;99071.98;1692572;83;24433;-86
2021/12/14 12:41:10;;;;;;;;;;;;;;;5.44;90.88;99072.59;1699187;83;20226;-86
2021/12/14 12:43:41;;;;;;;;;;;;;;;5.57;90.88;99074.69;1691499;82;24527;-86
2021/12/14 12:46:15;;;;;;;;;;;;;;;5.49;90.85;99071.11;1691071;83;21954;-86
2021/12/14 12:48:43;;;;;;;;;;;;;;;5.39;90.83;99066.73;1709755;83;26091;-85
2021/12/14 12:51:10;;;;;;;;;;;;;;;5.45;90.85;99066.95;1702473;83;24441;-86
2021/12/14 12:53:36;;;;;;;;;;;;;;;5.49;90.89;99071.11;1703276;83;20477;-86
2021/12/14 12:56:04;;;;;;;;;;;;;;;5.54;90.87;99075.66;1664823;85;25931;-87
2021/12/14 12:58:30;;;;;;;;;;;;;;;5.59;90.88;99072.88;1637313;86;21986;-86
2021/12/14 13:00:56;;;;;;;;;;;;;;;5.65;90.85;99074.79;1619485;86;26005;-86
2021/12/14 13:03:25;;;;;;;;;;;;;;;5.69;90.82;99071.61;1690497;83;24063;-86
2021/12/14 13:05:56;;;;;;;;;;;;;;;5.69;90.81;99066.41;1697786;83;20201;-86
2021/12/14 13:08:27;;;;;;;;;;;;;;;5.72;90.81;99071.50;1703280;83;25710;-85
2021/12/14 13:11:01;;;;;;;;;;;;;;;5.73;90.79;99067.97;1706662;83;21822;-86
2021/12/14 13:13:28;;;;;;;;;;;;;;;5.70;90.72;99066.81;1708734;83;26038;-85
2021/12/14 13:15:58;;;;;;;;;;;;;;;5.68;90.67;99070.76;1698559;83;24585;-86
2021/12/14 13:18:25;;;;;;;;;;;;;;;5.66;90.64;99069.99;1703140;83;20166;-85
2021/12/14 13:20:53;;;;;;;;;;;;;;;5.60;90.62;99066.79;1705256;83;25032;-85
2021/12/14 13:23:22;;;;;;;;;;;;;;;5.57;90.59;99071.63;1699639;83;21496;-86
2021/12/14 13:25:48;;;;;;;;;;;;;;;5.63;90.59;99075.29;1694340;83;25972;-86
2021/12/14 13:28:16;;;;;;;;;;;;;;;5.63;90.54;99077.04;1701758;83;24597;-85
2021/12/14 13:30:49;;;;;;;;;;;;;;;5.58;90.47;99077.67;1700833;82;20255;-85
2021/12/14 13:33:26;;;;;;;;;;;;;;;5.58;90.46;99084.16;1693648;83;24997;-85
2021/12/14 13:35:53;;;;;;;;;;;;;;;5.58;90.44;99084.16;1704147;83;21979;-85
2021/12/14 13:38:19;;;;;;;;;;;;;;;5.55;90.41;99085.15;1669087;85;25949;-85
2021/12/14 13:40:46;;;;;;;;;;;;;;;5.46;90.36;99079.84;1660621;85;24519;-85
2021/12/14 13:43:20;;;;;;;;;;;;;;;5.51;90.38;99077.55;1641780;86;20264;-85
2021/12/14 13:45:48;;;;;;;;;;;;;;;5.46;90.36;99078.55;1644991;86;24877;-85
2021/12/14 13:48:16;;;;;;;;;;;;;;;5.39;90.36;99078.86;1640872;86;21991;-85
2021/12/14 13:50:44;;;;;;;;;;;;;;;5.32;90.31;99060.53;1651576;85;25976;-86
2021/12/14 13:53:10;;;;;;;;;;;;;;;5.27;90.26;99063.31;1642224;86;24669;-85